sensor_id;sensor_type;location;lat;lon;timestamp;P1;durP1;ratioP1;P2;durP2;ratioP2
3491;SDS011;1760;52.480;13.422;2022-10-30T00:00:30;13.37;;;11.10;;
3491;SDS011;1760;52.480;13.422;2022-10-30T00:02:57;22.60;;;11.53;;
3491;SDS011;1760;52.480;13.422;2022-10-30T00:05:25;18.97;;;9.70;;
3491;SDS011;1760;52.480;13.422;2022-10-30T00:07:53;19.60;;;11.30;;
3491;SDS011;1760;52.480;13.422;2022-10-30T00:10:20;19.53;;;9.47;;
3491;SDS011;1760;52.480;13.422;2022-10-30T00:12:47;19.33;;;11.87;;
3491;SDS011;1760;52.480;13.422;2022-10-30T00:15:14;17.10;;;10.10;;
3491;SDS011;1760;52.480;13.422;2022-10-30T00:17:41;13.93;;;11.30;;
3491;SDS011;1760;52.480;13.422;2022-10-30T00:20:08;19.97;;;10.70;;
3491;SDS011;1760;52.480;13.422;2022-10-30T00:22:37;19.37;;;12.50;;
3491;SDS011;1760;52.480;13.422;2022-10-30T00:25:04;15.27;;;12.20;;
3491;SDS011;1760;52.480;13.422;2022-10-30T00:27:33;15.50;;;10.90;;
3491;SDS011;1760;52.480;13.422;2022-10-30T00:30:00;20.87;;;11.23;;
3491;SDS011;1760;52.480;13.422;2022-10-30T00:32:27;18.30;;;12.63;;
3491;SDS011;1760;52.480;13.422;2022-10-30T00:34:54;18.50;;;11.13;;
3491;SDS011;1760;52.480;13.422;2022-10-30T00:37:21;21.13;;;11.13;;
3491;SDS011;1760;52.480;13.422;2022-10-30T00:39:49;21.67;;;13.10;;
3491;SDS011;1760;52.480;13.422;2022-10-30T00:42:16;16.13;;;11.77;;
3491;SDS011;1760;52.480;13.422;2022-10-30T00:44:44;19.70;;;12.70;;
3491;SDS011;1760;52.480;13.422;2022-10-30T00:47:14;15.30;;;11.53;;
3491;SDS011;1760;52.480;13.422;2022-10-30T00:49:48;17.57;;;11.83;;
3491;SDS011;1760;52.480;13.422;2022-10-30T00:52:17;17.40;;;12.43;;
3491;SDS011;1760;52.480;13.422;2022-10-30T00:54:47;20.80;;;12.50;;
3491;SDS011;1760;52.480;13.422;2022-10-30T00:57:15;21.20;;;12.57;;
3491;SDS011;1760;52.480;13.422;2022-10-30T00:59:43;19.90;;;12.80;;
3491;SDS011;1760;52.480;13.422;2022-10-30T01:02:10;21.00;;;13.23;;
3491;SDS011;1760;52.480;13.422;2022-10-30T01:04:39;17.53;;;10.90;;
3491;SDS011;1760;52.480;13.422;2022-10-30T01:07:15;20.13;;;13.33;;
3491;SDS011;1760;52.480;13.422;2022-10-30T01:09:42;24.87;;;12.50;;
3491;SDS011;1760;52.480;13.422;2022-10-30T01:12:13;18.10;;;12.83;;
3491;SDS011;1760;52.480;13.422;2022-10-30T01:14:40;21.40;;;12.93;;
3491;SDS011;1760;52.480;13.422;2022-10-30T01:17:22;25.67;;;13.00;;
3491;SDS011;1760;52.480;13.422;2022-10-30T01:20:05;22.27;;;14.30;;
3491;SDS011;1760;52.480;13.422;2022-10-30T01:22:48;15.87;;;13.17;;
3491;SDS011;1760;52.480;13.422;2022-10-30T01:25:29;18.40;;;15.30;;
3491;SDS011;1760;52.480;13.422;2022-10-30T01:28:12;18.43;;;12.57;;
3491;SDS011;1760;52.480;13.422;2022-10-30T01:30:58;20.20;;;14.87;;
3491;SDS011;1760;52.480;13.422;2022-10-30T01:33:35;24.87;;;15.20;;
3491;SDS011;1760;52.480;13.422;2022-10-30T01:36:14;26.00;;;15.10;;
3491;SDS011;1760;52.480;13.422;2022-10-30T01:41:32;18.53;;;12.40;;
3491;SDS011;1760;52.480;13.422;2022-10-30T01:44:01;18.70;;;13.00;;
3491;SDS011;1760;52.480;13.422;2022-10-30T01:46:38;22.03;;;13.83;;
3491;SDS011;1760;52.480;13.422;2022-10-30T01:52:16;23.27;;;12.80;;
3491;SDS011;1760;52.480;13.422;2022-10-30T01:54:50;18.70;;;13.00;;
3491;SDS011;1760;52.480;13.422;2022-10-30T01:57:26;14.07;;;11.83;;
3491;SDS011;1760;52.480;13.422;2022-10-30T02:00:03;20.00;;;13.20;;
3491;SDS011;1760;52.480;13.422;2022-10-30T02:02:33;24.33;;;13.13;;
3491;SDS011;1760;52.480;13.422;2022-10-30T02:05:00;21.23;;;12.70;;
3491;SDS011;1760;52.480;13.422;2022-10-30T02:07:27;22.60;;;12.33;;
3491;SDS011;1760;52.480;13.422;2022-10-30T02:12:50;27.63;;;12.40;;
3491;SDS011;1760;52.480;13.422;2022-10-30T02:15:19;25.80;;;13.70;;
3491;SDS011;1760;52.480;13.422;2022-10-30T02:17:46;19.70;;;12.70;;
3491;SDS011;1760;52.480;13.422;2022-10-30T02:20:15;16.40;;;12.10;;
3491;SDS011;1760;52.480;13.422;2022-10-30T02:22:43;19.47;;;13.00;;
3491;SDS011;1760;52.480;13.422;2022-10-30T02:25:10;16.60;;;13.23;;
3491;SDS011;1760;52.480;13.422;2022-10-30T02:27:39;24.33;;;14.10;;
3491;SDS011;1760;52.480;13.422;2022-10-30T02:30:06;25.20;;;15.97;;
3491;SDS011;1760;52.480;13.422;2022-10-30T02:32:34;19.03;;;13.37;;
3491;SDS011;1760;52.480;13.422;2022-10-30T02:35:01;21.87;;;12.93;;
3491;SDS011;1760;52.480;13.422;2022-10-30T02:37:30;21.67;;;13.70;;
3491;SDS011;1760;52.480;13.422;2022-10-30T02:39:59;21.80;;;13.10;;
3491;SDS011;1760;52.480;13.422;2022-10-30T02:42:26;18.13;;;12.50;;
3491;SDS011;1760;52.480;13.422;2022-10-30T02:44:54;18.40;;;12.60;;
3491;SDS011;1760;52.480;13.422;2022-10-30T02:47:25;20.00;;;12.73;;
3491;SDS011;1760;52.480;13.422;2022-10-30T02:49:54;17.60;;;11.93;;
3491;SDS011;1760;52.480;13.422;2022-10-30T02:52:21;26.30;;;13.97;;
3491;SDS011;1760;52.480;13.422;2022-10-30T02:54:56;19.33;;;12.50;;
3491;SDS011;1760;52.480;13.422;2022-10-30T02:57:23;18.27;;;13.67;;
3491;SDS011;1760;52.480;13.422;2022-10-30T02:59:53;17.03;;;11.93;;
3491;SDS011;1760;52.480;13.422;2022-10-30T03:02:20;18.57;;;11.50;;
3491;SDS011;1760;52.480;13.422;2022-10-30T03:04:47;19.23;;;13.20;;
3491;SDS011;1760;52.480;13.422;2022-10-30T03:07:13;21.50;;;10.83;;
3491;SDS011;1760;52.480;13.422;2022-10-30T03:09:40;15.90;;;10.90;;
3491;SDS011;1760;52.480;13.422;2022-10-30T03:12:08;15.97;;;11.10;;
3491;SDS011;1760;52.480;13.422;2022-10-30T03:14:35;16.77;;;11.20;;
3491;SDS011;1760;52.480;13.422;2022-10-30T03:17:04;17.70;;;10.87;;
3491;SDS011;1760;52.480;13.422;2022-10-30T03:19:30;18.80;;;11.60;;
3491;SDS011;1760;52.480;13.422;2022-10-30T03:22:00;20.00;;;11.37;;
3491;SDS011;1760;52.480;13.422;2022-10-30T03:24:29;15.93;;;12.03;;
3491;SDS011;1760;52.480;13.422;2022-10-30T03:26:56;24.57;;;10.60;;
3491;SDS011;1760;52.480;13.422;2022-10-30T03:29:27;16.63;;;10.47;;
3491;SDS011;1760;52.480;13.422;2022-10-30T03:31:53;12.17;;;10.63;;
3491;SDS011;1760;52.480;13.422;2022-10-30T03:34:20;15.17;;;10.63;;
3491;SDS011;1760;52.480;13.422;2022-10-30T03:36:50;11.70;;;9.70;;
3491;SDS011;1760;52.480;13.422;2022-10-30T03:39:17;13.27;;;10.13;;
3491;SDS011;1760;52.480;13.422;2022-10-30T03:41:43;15.20;;;10.10;;
3491;SDS011;1760;52.480;13.422;2022-10-30T03:44:11;22.07;;;12.00;;
3491;SDS011;1760;52.480;13.422;2022-10-30T03:46:43;13.57;;;11.30;;
3491;SDS011;1760;52.480;13.422;2022-10-30T03:49:09;24.90;;;11.63;;
3491;SDS011;1760;52.480;13.422;2022-10-30T03:51:36;19.73;;;12.27;;
3491;SDS011;1760;52.480;13.422;2022-10-30T03:54:06;16.97;;;12.77;;
3491;SDS011;1760;52.480;13.422;2022-10-30T03:56:32;17.00;;;10.23;;
3491;SDS011;1760;52.480;13.422;2022-10-30T03:58:59;17.90;;;11.80;;
3491;SDS011;1760;52.480;13.422;2022-10-30T04:01:26;12.40;;;10.30;;
3491;SDS011;1760;52.480;13.422;2022-10-30T04:03:54;17.10;;;10.23;;
3491;SDS011;1760;52.480;13.422;2022-10-30T04:06:24;17.43;;;11.10;;
3491;SDS011;1760;52.480;13.422;2022-10-30T04:08:52;16.10;;;10.33;;
3491;SDS011;1760;52.480;13.422;2022-10-30T04:11:19;16.13;;;11.93;;
3491;SDS011;1760;52.480;13.422;2022-10-30T04:13:46;16.57;;;10.10;;
3491;SDS011;1760;52.480;13.422;2022-10-30T04:16:16;17.17;;;11.10;;
3491;SDS011;1760;52.480;13.422;2022-10-30T04:18:43;24.50;;;11.20;;
3491;SDS011;1760;52.480;13.422;2022-10-30T04:21:11;16.43;;;11.10;;
3491;SDS011;1760;52.480;13.422;2022-10-30T04:23:38;15.20;;;9.27;;
3491;SDS011;1760;52.480;13.422;2022-10-30T04:26:06;16.27;;;10.10;;
3491;SDS011;1760;52.480;13.422;2022-10-30T04:28:35;15.03;;;9.47;;
3491;SDS011;1760;52.480;13.422;2022-10-30T04:31:01;21.23;;;10.70;;
3491;SDS011;1760;52.480;13.422;2022-10-30T04:33:28;14.07;;;9.23;;
3491;SDS011;1760;52.480;13.422;2022-10-30T04:35:55;17.50;;;9.90;;
3491;SDS011;1760;52.480;13.422;2022-10-30T04:38:23;15.40;;;9.57;;
3491;SDS011;1760;52.480;13.422;2022-10-30T04:40:50;15.83;;;8.27;;
3491;SDS011;1760;52.480;13.422;2022-10-30T04:43:17;14.03;;;9.07;;
3491;SDS011;1760;52.480;13.422;2022-10-30T04:45:53;15.47;;;9.30;;
3491;SDS011;1760;52.480;13.422;2022-10-30T04:48:20;11.17;;;9.43;;
3491;SDS011;1760;52.480;13.422;2022-10-30T04:50:49;16.83;;;9.90;;
3491;SDS011;1760;52.480;13.422;2022-10-30T04:53:16;15.30;;;9.80;;
3491;SDS011;1760;52.480;13.422;2022-10-30T04:55:51;14.70;;;9.70;;
3491;SDS011;1760;52.480;13.422;2022-10-30T04:58:19;10.80;;;9.70;;
3491;SDS011;1760;52.480;13.422;2022-10-30T05:00:46;18.07;;;10.73;;
3491;SDS011;1760;52.480;13.422;2022-10-30T05:03:15;18.43;;;9.70;;
3491;SDS011;1760;52.480;13.422;2022-10-30T05:05:47;16.87;;;10.60;;
3491;SDS011;1760;52.480;13.422;2022-10-30T05:08:22;13.63;;;9.60;;
3491;SDS011;1760;52.480;13.422;2022-10-30T05:10:50;14.10;;;10.60;;
3491;SDS011;1760;52.480;13.422;2022-10-30T05:13:19;15.60;;;10.37;;
3491;SDS011;1760;52.480;13.422;2022-10-30T05:15:46;21.10;;;12.07;;
3491;SDS011;1760;52.480;13.422;2022-10-30T05:18:13;16.70;;;10.80;;
3491;SDS011;1760;52.480;13.422;2022-10-30T05:20:40;16.60;;;9.43;;
3491;SDS011;1760;52.480;13.422;2022-10-30T05:23:07;16.70;;;10.70;;
3491;SDS011;1760;52.480;13.422;2022-10-30T05:25:34;14.37;;;11.23;;
3491;SDS011;1760;52.480;13.422;2022-10-30T05:28:06;13.03;;;9.33;;
3491;SDS011;1760;52.480;13.422;2022-10-30T05:30:33;10.80;;;8.90;;
3491;SDS011;1760;52.480;13.422;2022-10-30T05:33:01;19.80;;;10.43;;
3491;SDS011;1760;52.480;13.422;2022-10-30T05:35:30;22.77;;;10.50;;
3491;SDS011;1760;52.480;13.422;2022-10-30T05:37:58;18.90;;;11.17;;
3491;SDS011;1760;52.480;13.422;2022-10-30T05:40:26;10.17;;;8.50;;
3491;SDS011;1760;52.480;13.422;2022-10-30T05:42:53;19.23;;;10.00;;
3491;SDS011;1760;52.480;13.422;2022-10-30T05:45:27;11.70;;;8.80;;
3491;SDS011;1760;52.480;13.422;2022-10-30T05:47:58;12.17;;;9.63;;
3491;SDS011;1760;52.480;13.422;2022-10-30T05:50:29;16.27;;;8.90;;
3491;SDS011;1760;52.480;13.422;2022-10-30T05:52:57;12.57;;;9.40;;
3491;SDS011;1760;52.480;13.422;2022-10-30T05:55:27;12.20;;;8.87;;
3491;SDS011;1760;52.480;13.422;2022-10-30T05:57:56;24.47;;;12.00;;
3491;SDS011;1760;52.480;13.422;2022-10-30T06:00:23;15.00;;;10.63;;
3491;SDS011;1760;52.480;13.422;2022-10-30T06:02:52;15.17;;;9.57;;
3491;SDS011;1760;52.480;13.422;2022-10-30T06:05:24;10.80;;;8.10;;
3491;SDS011;1760;52.480;13.422;2022-10-30T06:07:53;16.80;;;9.47;;
3491;SDS011;1760;52.480;13.422;2022-10-30T06:10:20;16.80;;;10.30;;
3491;SDS011;1760;52.480;13.422;2022-10-30T06:12:51;18.50;;;9.77;;
3491;SDS011;1760;52.480;13.422;2022-10-30T06:15:21;13.17;;;8.83;;
3491;SDS011;1760;52.480;13.422;2022-10-30T06:17:48;13.80;;;8.50;;
3491;SDS011;1760;52.480;13.422;2022-10-30T06:20:21;11.77;;;8.37;;
3491;SDS011;1760;52.480;13.422;2022-10-30T06:22:53;16.90;;;9.20;;
3491;SDS011;1760;52.480;13.422;2022-10-30T06:25:21;12.47;;;8.07;;
3491;SDS011;1760;52.480;13.422;2022-10-30T06:27:48;8.57;;;7.57;;
3491;SDS011;1760;52.480;13.422;2022-10-30T06:30:15;14.17;;;9.00;;
3491;SDS011;1760;52.480;13.422;2022-10-30T06:32:46;12.40;;;9.00;;
3491;SDS011;1760;52.480;13.422;2022-10-30T06:35:15;11.47;;;9.27;;
3491;SDS011;1760;52.480;13.422;2022-10-30T06:37:45;10.50;;;7.90;;
3491;SDS011;1760;52.480;13.422;2022-10-30T06:40:12;10.27;;;7.63;;
3491;SDS011;1760;52.480;13.422;2022-10-30T06:42:43;11.27;;;7.63;;
3491;SDS011;1760;52.480;13.422;2022-10-30T06:45:10;14.33;;;9.83;;
3491;SDS011;1760;52.480;13.422;2022-10-30T06:47:40;11.27;;;9.37;;
3491;SDS011;1760;52.480;13.422;2022-10-30T06:50:08;10.47;;;9.10;;
3491;SDS011;1760;52.480;13.422;2022-10-30T06:52:37;11.63;;;8.67;;
3491;SDS011;1760;52.480;13.422;2022-10-30T06:55:05;10.27;;;7.43;;
3491;SDS011;1760;52.480;13.422;2022-10-30T06:57:32;16.20;;;8.27;;
3491;SDS011;1760;52.480;13.422;2022-10-30T06:59:59;14.10;;;7.90;;
3491;SDS011;1760;52.480;13.422;2022-10-30T07:02:26;13.90;;;9.67;;
3491;SDS011;1760;52.480;13.422;2022-10-30T07:04:53;14.80;;;8.53;;
3491;SDS011;1760;52.480;13.422;2022-10-30T07:07:19;12.77;;;8.10;;
3491;SDS011;1760;52.480;13.422;2022-10-30T07:09:48;14.87;;;9.63;;
3491;SDS011;1760;52.480;13.422;2022-10-30T07:12:14;12.70;;;8.70;;
3491;SDS011;1760;52.480;13.422;2022-10-30T07:14:41;14.90;;;8.90;;
3491;SDS011;1760;52.480;13.422;2022-10-30T07:17:08;22.10;;;8.90;;
3491;SDS011;1760;52.480;13.422;2022-10-30T07:19:34;17.23;;;9.70;;
3491;SDS011;1760;52.480;13.422;2022-10-30T07:22:01;14.63;;;8.87;;
3491;SDS011;1760;52.480;13.422;2022-10-30T07:24:28;17.00;;;9.63;;
3491;SDS011;1760;52.480;13.422;2022-10-30T07:26:56;18.30;;;9.67;;
3491;SDS011;1760;52.480;13.422;2022-10-30T07:29:24;12.37;;;8.70;;
3491;SDS011;1760;52.480;13.422;2022-10-30T07:31:51;16.37;;;10.00;;
3491;SDS011;1760;52.480;13.422;2022-10-30T07:34:18;15.10;;;9.50;;
3491;SDS011;1760;52.480;13.422;2022-10-30T07:36:45;15.17;;;8.23;;
3491;SDS011;1760;52.480;13.422;2022-10-30T07:39:11;16.87;;;9.17;;
3491;SDS011;1760;52.480;13.422;2022-10-30T07:41:44;17.20;;;9.43;;
3491;SDS011;1760;52.480;13.422;2022-10-30T07:44:14;9.00;;;7.87;;
3491;SDS011;1760;52.480;13.422;2022-10-30T07:46:41;11.23;;;7.97;;
3491;SDS011;1760;52.480;13.422;2022-10-30T07:49:10;16.93;;;9.87;;
3491;SDS011;1760;52.480;13.422;2022-10-30T07:51:40;14.90;;;9.33;;
3491;SDS011;1760;52.480;13.422;2022-10-30T07:54:07;11.17;;;7.47;;
3491;SDS011;1760;52.480;13.422;2022-10-30T07:56:34;11.97;;;8.30;;
3491;SDS011;1760;52.480;13.422;2022-10-30T07:59:01;11.33;;;8.07;;
3491;SDS011;1760;52.480;13.422;2022-10-30T08:01:29;19.60;;;8.50;;
3491;SDS011;1760;52.480;13.422;2022-10-30T08:03:56;10.27;;;7.67;;
3491;SDS011;1760;52.480;13.422;2022-10-30T08:06:23;12.23;;;7.30;;
3491;SDS011;1760;52.480;13.422;2022-10-30T08:08:50;9.27;;;7.50;;
3491;SDS011;1760;52.480;13.422;2022-10-30T08:11:16;11.87;;;7.20;;
3491;SDS011;1760;52.480;13.422;2022-10-30T08:13:43;14.20;;;9.37;;
3491;SDS011;1760;52.480;13.422;2022-10-30T08:16:10;9.00;;;7.70;;
3491;SDS011;1760;52.480;13.422;2022-10-30T08:18:39;9.43;;;7.40;;
3491;SDS011;1760;52.480;13.422;2022-10-30T08:21:06;9.70;;;7.33;;
3491;SDS011;1760;52.480;13.422;2022-10-30T08:23:33;12.40;;;8.80;;
3491;SDS011;1760;52.480;13.422;2022-10-30T08:26:00;11.63;;;8.10;;
3491;SDS011;1760;52.480;13.422;2022-10-30T08:28:26;10.77;;;8.80;;
3491;SDS011;1760;52.480;13.422;2022-10-30T08:30:53;9.20;;;7.57;;
3491;SDS011;1760;52.480;13.422;2022-10-30T08:33:20;14.00;;;7.77;;
3491;SDS011;1760;52.480;13.422;2022-10-30T08:35:49;10.43;;;7.47;;
3491;SDS011;1760;52.480;13.422;2022-10-30T08:38:17;10.13;;;8.27;;
3491;SDS011;1760;52.480;13.422;2022-10-30T08:40:44;10.13;;;7.13;;
3491;SDS011;1760;52.480;13.422;2022-10-30T08:43:11;12.37;;;7.80;;
3491;SDS011;1760;52.480;13.422;2022-10-30T08:45:39;7.97;;;7.17;;
3491;SDS011;1760;52.480;13.422;2022-10-30T08:48:08;7.80;;;6.60;;
3491;SDS011;1760;52.480;13.422;2022-10-30T08:50:36;10.40;;;6.17;;
3491;SDS011;1760;52.480;13.422;2022-10-30T08:53:05;10.87;;;6.90;;
3491;SDS011;1760;52.480;13.422;2022-10-30T08:55:35;8.60;;;7.60;;
3491;SDS011;1760;52.480;13.422;2022-10-30T08:58:02;9.17;;;6.60;;
3491;SDS011;1760;52.480;13.422;2022-10-30T09:00:29;8.10;;;7.20;;
3491;SDS011;1760;52.480;13.422;2022-10-30T09:02:56;9.40;;;6.80;;
3491;SDS011;1760;52.480;13.422;2022-10-30T09:05:23;14.10;;;6.60;;
3491;SDS011;1760;52.480;13.422;2022-10-30T09:07:54;10.27;;;6.43;;
3491;SDS011;1760;52.480;13.422;2022-10-30T09:10:26;11.73;;;7.13;;
3491;SDS011;1760;52.480;13.422;2022-10-30T09:12:53;11.00;;;5.73;;
3491;SDS011;1760;52.480;13.422;2022-10-30T09:15:21;7.77;;;6.80;;
3491;SDS011;1760;52.480;13.422;2022-10-30T09:17:53;11.33;;;7.30;;
3491;SDS011;1760;52.480;13.422;2022-10-30T09:20:20;8.53;;;6.13;;
3491;SDS011;1760;52.480;13.422;2022-10-30T09:22:47;8.87;;;6.13;;
3491;SDS011;1760;52.480;13.422;2022-10-30T09:25:14;14.07;;;6.13;;
3491;SDS011;1760;52.480;13.422;2022-10-30T09:27:42;9.90;;;6.50;;
3491;SDS011;1760;52.480;13.422;2022-10-30T09:30:09;9.43;;;5.33;;
3491;SDS011;1760;52.480;13.422;2022-10-30T09:32:37;10.40;;;6.23;;
3491;SDS011;1760;52.480;13.422;2022-10-30T09:35:04;8.30;;;5.70;;
3491;SDS011;1760;52.480;13.422;2022-10-30T09:37:32;11.47;;;6.03;;
3491;SDS011;1760;52.480;13.422;2022-10-30T09:39:59;18.30;;;6.47;;
3491;SDS011;1760;52.480;13.422;2022-10-30T09:42:38;9.40;;;5.53;;
3491;SDS011;1760;52.480;13.422;2022-10-30T09:45:15;10.83;;;5.73;;
3491;SDS011;1760;52.480;13.422;2022-10-30T09:48:02;8.67;;;5.63;;
3491;SDS011;1760;52.480;13.422;2022-10-30T09:50:41;11.13;;;5.50;;
3491;SDS011;1760;52.480;13.422;2022-10-30T09:53:21;6.80;;;5.40;;
3491;SDS011;1760;52.480;13.422;2022-10-30T09:55:56;8.30;;;5.90;;
3491;SDS011;1760;52.480;13.422;2022-10-30T09:58:32;8.87;;;5.77;;
3491;SDS011;1760;52.480;13.422;2022-10-30T10:01:09;16.50;;;10.93;;
3491;SDS011;1760;52.480;13.422;2022-10-30T10:03:48;8.63;;;5.90;;
3491;SDS011;1760;52.480;13.422;2022-10-30T10:06:23;5.70;;;5.00;;
3491;SDS011;1760;52.480;13.422;2022-10-30T10:08:52;7.43;;;5.20;;
3491;SDS011;1760;52.480;13.422;2022-10-30T10:11:23;8.73;;;5.90;;
3491;SDS011;1760;52.480;13.422;2022-10-30T10:13:56;7.30;;;5.60;;
3491;SDS011;1760;52.480;13.422;2022-10-30T10:16:32;7.60;;;5.20;;
3491;SDS011;1760;52.480;13.422;2022-10-30T10:19:03;5.83;;;5.03;;
3491;SDS011;1760;52.480;13.422;2022-10-30T10:21:37;8.17;;;5.07;;
3491;SDS011;1760;52.480;13.422;2022-10-30T10:24:12;9.07;;;5.00;;
3491;SDS011;1760;52.480;13.422;2022-10-30T10:26:44;6.57;;;5.03;;
3491;SDS011;1760;52.480;13.422;2022-10-30T10:29:21;5.97;;;4.17;;
3491;SDS011;1760;52.480;13.422;2022-10-30T10:32:12;5.77;;;4.43;;
3491;SDS011;1760;52.480;13.422;2022-10-30T10:35:22;9.13;;;5.23;;
3491;SDS011;1760;52.480;13.422;2022-10-30T10:38:00;8.10;;;4.57;;
3491;SDS011;1760;52.480;13.422;2022-10-30T10:40:39;6.70;;;4.80;;
3491;SDS011;1760;52.480;13.422;2022-10-30T10:43:19;6.43;;;5.10;;
3491;SDS011;1760;52.480;13.422;2022-10-30T10:45:57;7.87;;;4.63;;
3491;SDS011;1760;52.480;13.422;2022-10-30T10:48:50;10.77;;;5.00;;
3491;SDS011;1760;52.480;13.422;2022-10-30T10:51:36;7.03;;;5.67;;
3491;SDS011;1760;52.480;13.422;2022-10-30T10:54:07;8.27;;;5.20;;
3491;SDS011;1760;52.480;13.422;2022-10-30T10:56:38;6.10;;;4.47;;
3491;SDS011;1760;52.480;13.422;2022-10-30T10:59:11;7.83;;;4.90;;
3491;SDS011;1760;52.480;13.422;2022-10-30T11:01:41;10.30;;;4.33;;
3491;SDS011;1760;52.480;13.422;2022-10-30T11:04:17;6.80;;;5.10;;
3491;SDS011;1760;52.480;13.422;2022-10-30T11:06:55;9.27;;;5.17;;
3491;SDS011;1760;52.480;13.422;2022-10-30T11:09:26;9.67;;;4.93;;
3491;SDS011;1760;52.480;13.422;2022-10-30T11:11:53;9.13;;;4.50;;
3491;SDS011;1760;52.480;13.422;2022-10-30T11:14:21;8.07;;;4.37;;
3491;SDS011;1760;52.480;13.422;2022-10-30T11:16:58;7.63;;;4.30;;
3491;SDS011;1760;52.480;13.422;2022-10-30T11:19:30;9.80;;;5.07;;
3491;SDS011;1760;52.480;13.422;2022-10-30T11:21:59;11.23;;;5.87;;
3491;SDS011;1760;52.480;13.422;2022-10-30T11:24:28;7.60;;;4.50;;
3491;SDS011;1760;52.480;13.422;2022-10-30T11:27:14;19.67;;;4.73;;
3491;SDS011;1760;52.480;13.422;2022-10-30T11:29:46;10.80;;;4.43;;
3491;SDS011;1760;52.480;13.422;2022-10-30T11:32:17;9.53;;;5.37;;
3491;SDS011;1760;52.480;13.422;2022-10-30T11:35:00;10.50;;;4.87;;
3491;SDS011;1760;52.480;13.422;2022-10-30T11:37:36;10.13;;;5.10;;
3491;SDS011;1760;52.480;13.422;2022-10-30T11:40:05;9.00;;;5.30;;
3491;SDS011;1760;52.480;13.422;2022-10-30T11:42:41;7.10;;;3.67;;
3491;SDS011;1760;52.480;13.422;2022-10-30T11:45:12;8.23;;;4.50;;
3491;SDS011;1760;52.480;13.422;2022-10-30T11:47:42;7.63;;;4.33;;
3491;SDS011;1760;52.480;13.422;2022-10-30T11:50:16;17.73;;;4.10;;
3491;SDS011;1760;52.480;13.422;2022-10-30T11:52:45;13.30;;;4.70;;
3491;SDS011;1760;52.480;13.422;2022-10-30T11:55:15;7.70;;;4.90;;
3491;SDS011;1760;52.480;13.422;2022-10-30T11:57:45;13.83;;;5.67;;
3491;SDS011;1760;52.480;13.422;2022-10-30T12:00:15;6.90;;;3.97;;
3491;SDS011;1760;52.480;13.422;2022-10-30T12:02:44;7.37;;;4.00;;
3491;SDS011;1760;52.480;13.422;2022-10-30T12:05:30;7.27;;;5.00;;
3491;SDS011;1760;52.480;13.422;2022-10-30T12:08:16;14.67;;;4.80;;
3491;SDS011;1760;52.480;13.422;2022-10-30T12:10:45;8.40;;;5.17;;
3491;SDS011;1760;52.480;13.422;2022-10-30T12:13:19;12.00;;;5.27;;
3491;SDS011;1760;52.480;13.422;2022-10-30T12:15:48;7.97;;;4.20;;
3491;SDS011;1760;52.480;13.422;2022-10-30T12:18:29;6.40;;;4.77;;
3491;SDS011;1760;52.480;13.422;2022-10-30T12:20:59;10.87;;;6.67;;
3491;SDS011;1760;52.480;13.422;2022-10-30T12:23:28;13.53;;;5.03;;
3491;SDS011;1760;52.480;13.422;2022-10-30T12:25:56;10.00;;;4.00;;
3491;SDS011;1760;52.480;13.422;2022-10-30T12:28:26;8.27;;;3.83;;
3491;SDS011;1760;52.480;13.422;2022-10-30T12:30:56;7.53;;;4.17;;
3491;SDS011;1760;52.480;13.422;2022-10-30T12:33:26;8.10;;;4.17;;
3491;SDS011;1760;52.480;13.422;2022-10-30T12:35:58;8.57;;;4.27;;
3491;SDS011;1760;52.480;13.422;2022-10-30T12:38:29;10.93;;;4.63;;
3491;SDS011;1760;52.480;13.422;2022-10-30T12:41:03;7.77;;;4.00;;
3491;SDS011;1760;52.480;13.422;2022-10-30T12:43:40;11.70;;;4.23;;
3491;SDS011;1760;52.480;13.422;2022-10-30T12:46:14;7.17;;;3.60;;
3491;SDS011;1760;52.480;13.422;2022-10-30T12:48:50;5.90;;;3.80;;
3491;SDS011;1760;52.480;13.422;2022-10-30T12:51:24;9.30;;;4.57;;
3491;SDS011;1760;52.480;13.422;2022-10-30T12:53:58;8.70;;;3.90;;
3491;SDS011;1760;52.480;13.422;2022-10-30T12:56:32;8.33;;;5.00;;
3491;SDS011;1760;52.480;13.422;2022-10-30T12:59:09;17.30;;;4.17;;
3491;SDS011;1760;52.480;13.422;2022-10-30T13:01:47;4.50;;;3.20;;
3491;SDS011;1760;52.480;13.422;2022-10-30T13:04:21;9.07;;;4.70;;
3491;SDS011;1760;52.480;13.422;2022-10-30T13:06:53;9.97;;;4.20;;
3491;SDS011;1760;52.480;13.422;2022-10-30T13:09:26;8.60;;;3.83;;
3491;SDS011;1760;52.480;13.422;2022-10-30T13:11:59;9.47;;;3.90;;
3491;SDS011;1760;52.480;13.422;2022-10-30T13:14:30;11.70;;;4.60;;
3491;SDS011;1760;52.480;13.422;2022-10-30T13:17:00;5.50;;;4.10;;
3491;SDS011;1760;52.480;13.422;2022-10-30T13:19:26;6.93;;;4.67;;
3491;SDS011;1760;52.480;13.422;2022-10-30T13:21:57;6.97;;;4.80;;
3491;SDS011;1760;52.480;13.422;2022-10-30T13:24:33;7.73;;;4.43;;
3491;SDS011;1760;52.480;13.422;2022-10-30T13:27:12;9.00;;;3.80;;
3491;SDS011;1760;52.480;13.422;2022-10-30T13:29:49;7.77;;;4.47;;
3491;SDS011;1760;52.480;13.422;2022-10-30T13:32:27;8.90;;;5.43;;
3491;SDS011;1760;52.480;13.422;2022-10-30T13:35:03;8.80;;;4.27;;
3491;SDS011;1760;52.480;13.422;2022-10-30T13:37:44;9.40;;;4.37;;
3491;SDS011;1760;52.480;13.422;2022-10-30T13:40:20;4.63;;;3.93;;
3491;SDS011;1760;52.480;13.422;2022-10-30T13:42:57;6.60;;;4.23;;
3491;SDS011;1760;52.480;13.422;2022-10-30T13:45:41;6.13;;;3.97;;
3491;SDS011;1760;52.480;13.422;2022-10-30T13:48:21;16.80;;;5.23;;
3491;SDS011;1760;52.480;13.422;2022-10-30T13:53:59;5.17;;;3.77;;
3491;SDS011;1760;52.480;13.422;2022-10-30T13:56:34;10.57;;;4.47;;
3491;SDS011;1760;52.480;13.422;2022-10-30T13:59:05;6.97;;;4.30;;
3491;SDS011;1760;52.480;13.422;2022-10-30T14:01:41;7.43;;;4.13;;
3491;SDS011;1760;52.480;13.422;2022-10-30T14:04:13;6.07;;;4.27;;
3491;SDS011;1760;52.480;13.422;2022-10-30T14:06:45;6.90;;;4.57;;
3491;SDS011;1760;52.480;13.422;2022-10-30T14:09:22;11.93;;;5.53;;
3491;SDS011;1760;52.480;13.422;2022-10-30T14:11:55;13.20;;;6.47;;
3491;SDS011;1760;52.480;13.422;2022-10-30T14:14:28;11.57;;;6.37;;
3491;SDS011;1760;52.480;13.422;2022-10-30T14:17:06;11.10;;;6.70;;
3491;SDS011;1760;52.480;13.422;2022-10-30T14:22:33;14.60;;;6.00;;
3491;SDS011;1760;52.480;13.422;2022-10-30T14:25:03;9.83;;;6.07;;
3491;SDS011;1760;52.480;13.422;2022-10-30T14:27:38;8.03;;;5.23;;
3491;SDS011;1760;52.480;13.422;2022-10-30T14:30:12;8.00;;;4.97;;
3491;SDS011;1760;52.480;13.422;2022-10-30T14:32:49;5.57;;;4.13;;
3491;SDS011;1760;52.480;13.422;2022-10-30T14:35:34;7.67;;;4.77;;
3491;SDS011;1760;52.480;13.422;2022-10-30T14:38:15;14.03;;;5.93;;
3491;SDS011;1760;52.480;13.422;2022-10-30T14:41:05;13.20;;;6.10;;
3491;SDS011;1760;52.480;13.422;2022-10-30T14:43:57;9.70;;;7.20;;
3491;SDS011;1760;52.480;13.422;2022-10-30T14:46:41;13.70;;;5.87;;
3491;SDS011;1760;52.480;13.422;2022-10-30T14:49:27;14.13;;;6.70;;
3491;SDS011;1760;52.480;13.422;2022-10-30T14:52:18;17.43;;;8.37;;
3491;SDS011;1760;52.480;13.422;2022-10-30T14:54:56;15.97;;;9.17;;
3491;SDS011;1760;52.480;13.422;2022-10-30T14:57:43;10.93;;;6.83;;
3491;SDS011;1760;52.480;13.422;2022-10-30T15:00:28;11.93;;;6.53;;
3491;SDS011;1760;52.480;13.422;2022-10-30T15:03:16;10.37;;;6.90;;
3491;SDS011;1760;52.480;13.422;2022-10-30T15:05:55;15.90;;;6.67;;
3491;SDS011;1760;52.480;13.422;2022-10-30T15:08:32;12.67;;;6.73;;
3491;SDS011;1760;52.480;13.422;2022-10-30T15:11:29;13.80;;;5.80;;
3491;SDS011;1760;52.480;13.422;2022-10-30T15:14:10;12.80;;;6.00;;
3491;SDS011;1760;52.480;13.422;2022-10-30T15:16:42;11.70;;;8.00;;
3491;SDS011;1760;52.480;13.422;2022-10-30T15:19:11;14.30;;;7.67;;
3491;SDS011;1760;52.480;13.422;2022-10-30T15:21:41;11.07;;;6.40;;
3491;SDS011;1760;52.480;13.422;2022-10-30T15:24:11;15.17;;;7.37;;
3491;SDS011;1760;52.480;13.422;2022-10-30T15:26:41;12.93;;;6.40;;